createdAt,value
2019-04-29T00:01:08.824Z,95783.20
2019-04-29T00:03:37.955Z,95784.50
2019-04-29T00:06:07.107Z,95785.40
2019-04-29T00:08:36.247Z,95787.09
2019-04-29T00:11:05.422Z,95779.27
2019-04-29T00:13:34.576Z,95772.34
2019-04-29T00:16:19.032Z,95780.98
2019-04-29T00:19:06.613Z,95780.03
2019-04-29T00:21:35.824Z,95777.05
2019-04-29T00:24:05.107Z,95779.22
2019-04-29T00:26:34.309Z,95780.86
2019-04-29T00:29:03.499Z,95786.06
2019-04-29T00:31:32.652Z,95784.30
2019-04-29T00:34:01.746Z,95784.72
2019-04-29T00:36:36.216Z,95781.64
2019-04-29T00:39:25.626Z,95780.41
2019-04-29T00:42:23.083Z,95785.11
2019-04-29T00:44:52.574Z,95787.20
2019-04-29T00:47:21.822Z,95781.98
2019-04-29T00:49:50.960Z,95789.73
2019-04-29T00:52:20.057Z,95783.31
2019-04-29T00:54:57.532Z,95786.75
2019-04-29T00:57:26.749Z,95787.67
2019-04-29T00:59:55.900Z,95781.20
2019-04-29T01:02:25.107Z,95781.14
2019-04-29T01:04:54.220Z,95791.88
2019-04-29T01:07:23.471Z,95787.48
2019-04-29T01:09:52.604Z,95792.14
2019-04-29T01:12:21.736Z,95791.20
2019-04-29T01:14:52.936Z,95785.99
2019-04-29T01:17:21.658Z,95788.58
2019-04-29T01:19:50.762Z,95792.47
2019-04-29T01:22:19.961Z,95791.98
2019-04-29T01:24:49.106Z,95796.72
2019-04-29T01:27:26.326Z,95789.42
2019-04-29T01:29:55.569Z,95795.84
2019-04-29T01:32:24.841Z,95794.94
2019-04-29T01:34:55.169Z,95793.19
2019-04-29T01:37:39.254Z,95792.70
2019-04-29T01:40:33.577Z,95794.00
2019-04-29T01:43:02.779Z,95795.22
2019-04-29T01:45:31.877Z,95790.48
2019-04-29T01:48:00.996Z,95790.45
2019-04-29T01:50:30.130Z,95788.80
2019-04-29T01:52:59.275Z,95793.67
2019-04-29T01:55:28.479Z,95792.44
2019-04-29T01:57:57.604Z,95789.39
2019-04-29T02:00:26.742Z,95788.16
2019-04-29T02:02:55.856Z,95782.52
2019-04-29T02:05:24.987Z,95785.56
2019-04-29T02:07:54.122Z,95784.66
2019-04-29T02:10:29.351Z,95785.12
2019-04-29T02:12:58.456Z,95782.91
2019-04-29T02:15:27.618Z,95785.53
2019-04-29T02:17:56.717Z,95774.73
2019-04-29T02:20:25.859Z,95771.23
2019-04-29T02:23:13.919Z,95777.34
2019-04-29T02:25:44.515Z,95768.26
2019-04-29T02:28:13.645Z,95775.20
2019-04-29T02:30:46.878Z,95770.89
2019-04-29T02:33:15.985Z,95769.63
2019-04-29T02:35:45.137Z,95769.20
2019-04-29T02:38:33.236Z,95767.52
2019-04-29T02:41:15.726Z,95764.47
2019-04-29T02:43:46.626Z,95766.34
2019-04-29T02:46:15.797Z,95764.23
2019-04-29T02:48:44.906Z,95771.10
2019-04-29T02:51:16.407Z,95767.61
2019-04-29T02:53:45.579Z,95765.11
2019-04-29T02:56:14.753Z,95762.61
2019-04-29T02:58:52.352Z,95760.12
2019-04-29T03:01:40.622Z,95759.28
2019-04-29T03:04:14.247Z,95751.67
2019-04-29T03:06:43.499Z,95755.11
2019-04-29T03:09:12.625Z,95757.67
2019-04-29T03:11:41.708Z,95754.29
2019-04-29T03:14:10.869Z,95753.51
2019-04-29T03:16:40.191Z,95747.56
2019-04-29T03:19:16.159Z,95744.89
2019-04-29T03:21:54.298Z,95746.56
2019-04-29T03:24:23.494Z,95749.50
2019-04-29T03:26:52.606Z,95751.98
2019-04-29T03:29:24.552Z,95747.17
2019-04-29T03:31:55.230Z,95751.53
2019-04-29T03:34:24.342Z,95754.95
2019-04-29T03:36:53.629Z,95755.42
2019-04-29T03:39:22.742Z,95758.88
2019-04-29T03:41:51.861Z,95760.09
2019-04-29T03:44:21.169Z,95760.91
2019-04-29T03:46:50.270Z,95763.45
2019-04-29T03:49:19.425Z,95757.81
2019-04-29T03:51:48.568Z,95753.89
2019-04-29T03:54:17.704Z,95754.80
2019-04-29T03:56:46.802Z,95762.19
2019-04-29T03:59:15.920Z,95763.65
2019-04-29T04:02:03.557Z,95761.45
2019-04-29T04:04:50.513Z,95759.31
2019-04-29T04:07:44.523Z,95768.33
2019-04-29T04:10:13.786Z,95772.18
2019-04-29T04:12:42.904Z,95773.03
2019-04-29T04:15:12.023Z,95769.11
2019-04-29T04:17:46.602Z,95776.83
2019-04-29T04:20:15.812Z,95773.81
2019-04-29T04:22:48.550Z,95777.25
2019-04-29T04:25:18.468Z,95785.16
2019-04-29T04:27:47.802Z,95779.14
2019-04-29T04:30:17.405Z,95784.38
2019-04-29T04:32:46.521Z,95785.64
2019-04-29T04:35:16.272Z,95786.56
2019-04-29T04:37:45.441Z,95787.91
2019-04-29T04:40:19.520Z,95794.36
2019-04-29T04:42:48.636Z,95796.61
2019-04-29T04:45:17.843Z,95805.45
2019-04-29T04:47:46.974Z,95807.55
2019-04-29T04:50:16.107Z,95806.28
2019-04-29T04:52:45.224Z,95808.91
2019-04-29T04:55:14.510Z,95808.89
2019-04-29T04:57:43.703Z,95805.81
2019-04-29T05:00:20.284Z,95815.70
2019-04-29T05:02:49.513Z,95808.32
2019-04-29T05:05:18.645Z,95808.78
2019-04-29T05:07:47.783Z,95805.73
2019-04-29T05:10:16.909Z,95807.89
2019-04-29T05:12:46.180Z,95810.05
2019-04-29T05:15:15.419Z,95814.75
2019-04-29T05:17:44.557Z,95805.24
2019-04-29T05:20:13.776Z,95812.97
2019-04-29T05:22:59.228Z,95816.91
2019-04-29T05:25:33.176Z,95820.31
2019-04-29T05:28:02.570Z,95817.66
2019-04-29T05:30:31.777Z,95822.84
2019-04-29T05:33:00.962Z,95827.92
2019-04-29T05:35:46.138Z,95824.84
2019-04-29T05:38:52.414Z,95826.20
2019-04-29T05:41:23.342Z,95819.65
2019-04-29T05:44:14.456Z,95814.44
2019-04-29T05:46:56.863Z,95820.02
2019-04-29T05:49:31.523Z,95827.45
2019-04-29T05:52:17.573Z,95829.06
2019-04-29T05:54:46.805Z,95831.29
2019-04-29T05:57:15.933Z,95829.49
2019-04-29T05:59:47.872Z,95829.52
2019-04-29T06:02:16.021Z,95831.19
2019-04-29T06:04:48.153Z,95834.17
2019-04-29T06:07:21.312Z,95834.12
2019-04-29T06:09:47.385Z,95839.21
2019-04-29T06:12:16.493Z,95841.41
2019-04-29T06:14:45.617Z,95844.85
2019-04-29T06:17:14.785Z,95845.02
2019-04-29T06:19:43.907Z,95844.14
2019-04-29T06:22:13.215Z,95848.88
2019-04-29T06:24:42.393Z,95843.75
2019-04-29T06:27:11.501Z,95847.16
2019-04-29T06:29:40.663Z,95845.09
2019-04-29T06:32:09.826Z,95842.13
2019-04-29T06:34:40.040Z,95847.39
2019-04-29T06:37:09.923Z,95849.44
2019-04-29T06:39:39.084Z,95855.91
2019-04-29T06:42:08.234Z,95845.49
2019-04-29T06:44:37.391Z,95853.69
2019-04-29T06:47:06.543Z,95856.73
2019-04-29T06:49:35.685Z,95849.28
2019-04-29T06:52:04.811Z,95854.41
2019-04-29T06:54:34.032Z,95854.77
2019-04-29T06:57:03.212Z,95853.00
2019-04-29T06:59:32.412Z,95854.63
2019-04-29T07:02:01.561Z,95857.10
2019-04-29T07:04:36.066Z,95857.59
2019-04-29T07:07:01.557Z,95857.59
2019-04-29T07:09:31.049Z,95854.96
2019-04-29T07:12:01.570Z,95854.51
2019-04-29T07:14:33.249Z,95859.08
2019-04-29T07:17:05.736Z,95859.44
2019-04-29T07:19:32.919Z,95855.40
2019-04-29T07:22:02.037Z,95854.87
2019-04-29T07:24:31.199Z,95859.64
2019-04-29T07:27:02.844Z,95864.73
2019-04-29T07:29:32.689Z,95861.75
2019-04-29T07:32:04.687Z,95860.52
2019-04-29T07:34:33.823Z,95861.75
2019-04-29T07:37:03.944Z,95863.92
2019-04-29T07:39:33.469Z,95859.95
2019-04-29T07:42:03.402Z,95857.77
2019-04-29T07:44:44.233Z,95854.60
2019-04-29T07:47:09.981Z,95853.22
2019-04-29T07:49:39.185Z,95855.48
2019-04-29T07:52:09.770Z,95848.98
2019-04-29T07:54:39.248Z,95854.56
2019-04-29T07:57:08.402Z,95854.98
2019-04-29T07:59:38.373Z,95854.82
2019-04-29T08:02:08.417Z,95855.61
2019-04-29T08:04:40.317Z,95861.52
2019-04-29T08:07:08.480Z,95862.77
2019-04-29T08:09:39.870Z,95860.30
2019-04-29T08:12:10.627Z,95861.48
2019-04-29T08:14:40.145Z,95861.14
2019-04-29T08:17:09.424Z,95858.04
2019-04-29T08:19:38.641Z,95859.05
2019-04-29T08:22:07.779Z,95862.27
2019-04-29T08:24:37.552Z,95861.30
2019-04-29T08:27:06.767Z,95856.89
2019-04-29T08:29:37.377Z,95860.33
2019-04-29T08:32:06.607Z,95861.87
2019-04-29T08:34:35.739Z,95861.73
2019-04-29T08:37:04.893Z,95863.48
2019-04-29T08:39:34.041Z,95862.74
2019-04-29T08:42:08.979Z,95865.98
2019-04-29T08:44:54.619Z,95860.22
2019-04-29T08:47:31.415Z,95860.69
2019-04-29T08:49:58.441Z,95860.27
2019-04-29T08:52:27.668Z,95860.02
2019-04-29T08:54:57.373Z,95858.71
2019-04-29T08:57:26.563Z,95853.83
2019-04-29T08:59:55.796Z,95855.59
2019-04-29T09:02:34.547Z,95851.02
2019-04-29T09:04:55.840Z,95854.33
2019-04-29T09:07:25.005Z,95852.39
2019-04-29T09:09:56.146Z,95851.84
2019-04-29T09:12:29.403Z,95849.45
2019-04-29T09:14:55.947Z,95850.91
2019-04-29T09:17:25.083Z,95843.05
2019-04-29T09:19:54.178Z,95842.37
2019-04-29T09:22:25.057Z,95843.39
2019-04-29T09:25:31.922Z,95840.68
2019-04-29T09:28:04.191Z,95828.73
2019-04-29T09:30:33.304Z,95824.88
2019-04-29T09:33:02.626Z,95824.00
2019-04-29T09:35:33.802Z,95825.86
2019-04-29T09:38:04.902Z,95822.72
2019-04-29T09:40:37.041Z,95823.26
2019-04-29T09:43:32.917Z,95822.92
2019-04-29T09:46:08.645Z,95818.59
2019-04-29T09:48:48.675Z,95819.48
2019-04-29T09:51:22.159Z,95819.41
2019-04-29T09:53:48.781Z,95831.11
2019-04-29T09:56:17.936Z,95821.92
2019-04-29T09:58:47.115Z,95836.36
2019-04-29T10:01:33.168Z,95825.55
2019-04-29T10:04:26.247Z,95822.09
2019-04-29T10:06:57.389Z,95828.30
2019-04-29T10:09:26.515Z,95819.59
2019-04-29T10:11:55.647Z,95815.64
2019-04-29T10:14:24.898Z,95803.88
2019-04-29T10:17:16.702Z,95809.39
2019-04-29T10:20:10.790Z,95805.38
2019-04-29T10:22:39.983Z,95799.55
2019-04-29T10:25:09.214Z,95798.80
2019-04-29T10:27:38.322Z,95787.66
2019-04-29T10:30:08.129Z,95795.43
2019-04-29T10:32:37.720Z,95791.87
2019-04-29T10:35:10.535Z,95785.68
2019-04-29T10:37:39.594Z,95788.10
2019-04-29T10:40:40.486Z,95780.56
2019-04-29T10:43:18.247Z,95781.03
2019-04-29T10:46:26.056Z,95782.48
2019-04-29T10:49:03.656Z,95780.15
2019-04-29T10:51:31.206Z,95781.88
2019-04-29T10:54:00.348Z,95786.78
2019-04-29T10:56:29.578Z,95789.13
2019-04-29T10:58:58.932Z,95794.81
2019-04-29T11:02:18.164Z,95797.53
2019-04-29T11:04:48.742Z,95798.52
2019-04-29T11:07:30.910Z,95791.30
2019-04-29T11:10:07.986Z,95789.00
2019-04-29T11:12:36.532Z,95787.40
2019-04-29T11:15:09.892Z,95792.19
2019-04-29T11:17:39.827Z,95795.77
2019-04-29T11:20:11.273Z,95792.03
2019-04-29T11:22:44.952Z,95789.80
2019-04-29T11:25:32.386Z,95789.11
2019-04-29T11:28:01.607Z,95785.59
2019-04-29T11:30:34.868Z,95781.52
2019-04-29T11:33:10.614Z,95778.20
2019-04-29T11:35:59.276Z,95776.84
2019-04-29T11:38:32.950Z,95772.99
2019-04-29T11:41:01.841Z,95769.73
2019-04-29T11:43:31.519Z,95770.22
2019-04-29T11:46:00.632Z,95769.09
2019-04-29T11:48:29.998Z,95773.06
2019-04-29T11:51:34.092Z,95769.38
2019-04-29T11:54:02.928Z,95764.07
2019-04-29T11:56:32.259Z,95754.08
2019-04-29T11:59:08.063Z,95759.38
2019-04-29T12:01:51.479Z,95765.37
2019-04-29T12:04:28.526Z,95757.41
2019-04-29T12:06:58.324Z,95767.47
2019-04-29T12:09:30.456Z,95762.81
2019-04-29T12:11:58.481Z,95765.91
2019-04-29T12:14:39.053Z,95756.64
2019-04-29T12:17:30.520Z,95761.44
2019-04-29T12:20:03.274Z,95757.03
2019-04-29T12:22:32.573Z,95761.16
2019-04-29T12:25:01.642Z,95754.06
2019-04-29T12:27:30.777Z,95756.14
2019-04-29T12:30:00.005Z,95747.61
2019-04-29T12:32:56.698Z,95749.80
2019-04-29T12:35:32.584Z,95743.71
2019-04-29T12:38:21.690Z,95750.13
2019-04-29T12:41:20.209Z,95752.59
2019-04-29T12:44:00.496Z,95752.59
2019-04-29T12:46:35.018Z,95746.25
2019-04-29T12:49:08.585Z,95739.21
2019-04-29T12:51:35.468Z,95727.73
2019-04-29T12:54:04.723Z,95728.00
2019-04-29T12:56:36.194Z,95728.07
2019-04-29T12:59:05.865Z,95724.24
2019-04-29T13:02:06.365Z,95720.99
2019-04-29T13:04:57.519Z,95725.11
2019-04-29T13:07:50.092Z,95725.47
2019-04-29T13:10:24.716Z,95725.52
2019-04-29T13:12:53.863Z,95723.19
2019-04-29T13:15:57.626Z,95723.67
2019-04-29T13:19:10.754Z,95710.78
2019-04-29T13:21:29.854Z,95712.36
2019-04-29T13:24:13.375Z,95716.81
2019-04-29T13:26:33.245Z,95713.06
2019-04-29T13:29:01.717Z,95724.56
2019-04-29T13:31:38.667Z,95720.39
2019-04-29T13:34:22.368Z,95718.39
2019-04-29T13:36:34.523Z,95720.11
2019-04-29T13:39:04.688Z,95717.81
2019-04-29T13:41:33.894Z,95710.24
2019-04-29T13:44:05.293Z,95702.19
2019-04-29T13:46:51.197Z,95707.30
2019-04-29T13:49:31.574Z,95700.31
2019-04-29T13:52:01.106Z,95694.05
2019-04-29T13:54:30.254Z,95692.02
2019-04-29T13:57:07.887Z,95690.38
2019-04-29T13:59:52.102Z,95694.19
2019-04-29T14:02:32.300Z,95697.97
2019-04-29T14:05:02.184Z,95695.53
2019-04-29T14:07:31.558Z,95694.82
2019-04-29T14:10:00.819Z,95690.71
2019-04-29T14:15:01.010Z,95695.52
2019-04-29T14:17:31.712Z,95697.48
2019-04-29T14:20:03.563Z,95685.91
2019-04-29T14:22:32.782Z,95690.62
2019-04-29T14:25:03.163Z,95689.19
2019-04-29T14:27:32.304Z,95684.31
2019-04-29T14:30:03.097Z,95682.25
2019-04-29T14:32:35.978Z,95688.28
2019-04-29T14:35:15.916Z,95682.13
2019-04-29T14:37:54.997Z,95676.38
2019-04-29T14:40:16.211Z,95683.77
2019-04-29T14:42:57.884Z,95683.72
2019-04-29T14:45:58.112Z,95683.39
2019-04-29T14:48:42.072Z,95688.31
2019-04-29T14:51:02.879Z,95684.53
2019-04-29T14:53:32.033Z,95681.95
2019-04-29T14:56:01.210Z,95690.34
2019-04-29T14:58:30.382Z,95696.80
2019-04-29T15:01:30.711Z,95690.92
2019-04-29T15:04:16.617Z,95696.95
2019-04-29T15:06:32.939Z,95702.24
2019-04-29T15:09:02.314Z,95705.09
2019-04-29T15:11:41.093Z,95703.22
2019-04-29T15:14:28.101Z,95706.39
2019-04-29T15:17:04.512Z,95705.22
2019-04-29T15:20:01.415Z,95709.02
2019-04-29T15:22:33.947Z,95700.89
2019-04-29T15:25:03.137Z,95703.14
2019-04-29T15:27:34.592Z,95702.83
2019-04-29T15:30:04.178Z,95703.39
2019-04-29T15:32:33.340Z,95701.14
2019-04-29T15:35:02.543Z,95701.85
2019-04-29T15:37:31.681Z,95702.20
2019-04-29T15:40:00.972Z,95699.42
2019-04-29T15:42:30.186Z,95701.44
2019-04-29T15:44:59.362Z,95709.42
2019-04-29T15:47:31.352Z,95706.62
2019-04-29T15:50:00.674Z,95710.90
2019-04-29T15:52:30.328Z,95706.28
2019-04-29T15:54:59.558Z,95707.83
2019-04-29T15:57:28.746Z,95707.88
2019-04-29T16:00:00.032Z,95712.78
2019-04-29T16:02:29.012Z,95707.11
2019-04-29T16:05:04.794Z,95712.77
2019-04-29T16:07:55.788Z,95718.54
2019-04-29T16:10:51.769Z,95719.06
2019-04-29T16:13:22.459Z,95717.45
2019-04-29T16:15:53.358Z,95719.38
2019-04-29T16:18:22.500Z,95718.81
2019-04-29T16:20:54.168Z,95718.07
2019-04-29T16:23:22.573Z,95714.86
2019-04-29T16:25:54.512Z,95713.91
2019-04-29T16:28:30.934Z,95714.18
2019-04-29T16:30:54.980Z,95712.47
2019-04-29T16:33:24.120Z,95715.83
2019-04-29T16:35:57.546Z,95708.14
2019-04-29T16:38:24.450Z,95710.33
2019-04-29T16:41:01.490Z,95710.74
2019-04-29T16:43:37.631Z,95720.00
2019-04-29T16:46:17.006Z,95708.45
2019-04-29T16:48:46.167Z,95712.57
2019-04-29T16:51:16.638Z,95711.74
2019-04-29T16:53:46.034Z,95711.10
2019-04-29T16:58:46.216Z,95711.93
2019-04-29T17:01:15.566Z,95710.95
2019-04-29T17:03:45.584Z,95710.01
2019-04-29T17:06:14.824Z,95713.95
2019-04-29T17:09:04.980Z,95712.19
2019-04-29T17:11:34.061Z,95723.75
2019-04-29T17:14:09.888Z,95725.63
2019-04-29T17:16:34.194Z,95721.98
2019-04-29T17:19:03.381Z,95728.89
2019-04-29T17:21:32.569Z,95729.41
2019-04-29T17:24:01.768Z,95725.20
2019-04-29T17:26:40.806Z,95726.19
2019-04-29T17:29:40.832Z,95730.14
2019-04-29T17:32:28.175Z,95721.36
2019-04-29T17:34:59.780Z,95730.91
2019-04-29T17:35:14.556Z,95711.53
2019-04-29T17:37:28.866Z,95735.23
2019-04-29T17:39:58.169Z,95731.02
2019-04-29T17:42:29.509Z,95735.07
2019-04-29T17:45:01.374Z,95727.73
2019-04-29T17:47:51.887Z,95731.16
2019-04-29T17:50:46.194Z,95736.51
2019-04-29T17:53:19.642Z,95734.66
2019-04-29T17:55:58.407Z,95732.00
2019-04-29T17:58:32.829Z,95734.55
2019-04-29T18:01:28.984Z,95727.00
2019-04-29T18:04:20.256Z,95745.01
2019-04-29T18:07:08.211Z,95736.55
2019-04-29T18:09:44.945Z,95742.22
2019-04-29T18:12:24.932Z,95737.06
2019-04-29T18:14:55.132Z,95738.84
2019-04-29T18:17:31.167Z,95735.45
2019-04-29T18:20:17.641Z,95744.17
2019-04-29T18:23:19.147Z,95746.77
2019-04-29T18:26:04.899Z,95748.07
2019-04-29T18:28:37.151Z,95744.67
2019-04-29T18:31:07.275Z,95747.65
2019-04-29T18:33:36.507Z,95755.61
2019-04-29T18:36:07.038Z,95749.25
2019-04-29T18:38:36.469Z,95753.27
2019-04-29T18:41:05.772Z,95755.20
2019-04-29T18:43:35.387Z,95759.09
2019-04-29T18:46:06.047Z,95762.98
2019-04-29T18:48:36.595Z,95759.64
2019-04-29T18:51:06.391Z,95763.45
2019-04-29T18:53:35.893Z,95766.80
2019-04-29T18:56:05.375Z,95771.11
2019-04-29T18:58:35.607Z,95771.28
2019-04-29T19:01:05.407Z,95775.68
2019-04-29T19:04:00.650Z,95776.59
2019-04-29T19:06:30.515Z,95776.18
2019-04-29T19:09:01.553Z,95770.15
2019-04-29T19:11:32.789Z,95769.56
2019-04-29T19:14:02.271Z,95772.16
2019-04-29T19:16:31.628Z,95764.92
2019-04-29T19:19:02.022Z,95774.76
2019-04-29T19:21:31.662Z,95776.56
2019-04-29T19:24:01.103Z,95772.74
2019-04-29T19:26:30.446Z,95782.25
2019-04-29T19:29:01.345Z,95780.98
2019-04-29T19:31:30.598Z,95782.28
2019-04-29T19:33:59.932Z,95777.86
2019-04-29T19:36:29.203Z,95775.64
2019-04-29T19:38:58.958Z,95771.45
2019-04-29T19:41:28.189Z,95772.79
2019-04-29T19:43:57.434Z,95768.81
2019-04-29T19:46:36.999Z,95770.16
2019-04-29T19:49:05.400Z,95762.28
2019-04-29T19:51:29.179Z,95765.30
2019-04-29T19:53:58.696Z,95761.06
2019-04-29T19:56:28.116Z,95765.00
2019-04-29T19:58:58.403Z,95766.84
2019-04-29T20:01:31.912Z,95769.39
2019-04-29T20:04:22.153Z,95771.45
2019-04-29T20:06:48.792Z,95765.38
2019-04-29T20:09:22.512Z,95760.10
2019-04-29T20:11:52.158Z,95767.47
2019-04-29T20:14:29.199Z,95768.27
2019-04-29T20:17:17.227Z,95764.41
2019-04-29T20:19:55.042Z,95763.11
2019-04-29T20:22:21.197Z,95757.09
2019-04-29T20:24:50.925Z,95757.92
2019-04-29T20:27:21.131Z,95757.55
2019-04-29T20:29:50.852Z,95758.05
2019-04-29T20:32:22.536Z,95762.03
2019-04-29T20:34:51.677Z,95753.83
2019-04-29T20:37:21.168Z,95761.94
2019-04-29T20:39:52.008Z,95757.17
2019-04-29T20:42:21.516Z,95755.04
2019-04-29T20:44:50.844Z,95751.98
2019-04-29T20:47:23.666Z,95752.60
2019-04-29T20:49:51.876Z,95746.03
2019-04-29T20:52:40.297Z,95744.97
2019-04-29T20:55:10.057Z,95745.43
2019-04-29T20:57:39.525Z,95734.17
2019-04-29T21:00:09.777Z,95737.15
2019-04-29T21:02:39.241Z,95735.59
2019-04-29T21:05:09.998Z,95729.02
2019-04-29T21:07:39.845Z,95727.14
2019-04-29T21:10:09.196Z,95726.39
2019-04-29T21:12:49.826Z,95728.64
2019-04-29T21:15:27.312Z,95729.21
2019-04-29T21:17:58.651Z,95732.83
2019-04-29T21:20:27.498Z,95736.61
2019-04-29T21:23:00.885Z,95734.02
2019-04-29T21:25:29.422Z,95732.72
2019-04-29T21:28:02.246Z,95737.52
2019-04-29T21:30:35.533Z,95741.83
2019-04-29T21:33:01.116Z,95745.27
2019-04-29T21:35:37.798Z,95737.06
2019-04-29T21:38:35.352Z,95740.12
2019-04-29T21:41:08.120Z,95727.29
2019-04-29T21:43:39.317Z,95729.00
2019-04-29T21:46:08.476Z,95732.41
2019-04-29T21:48:37.583Z,95737.06
2019-04-29T21:51:11.003Z,95734.92
2019-04-29T21:53:40.252Z,95732.27
2019-04-29T21:56:09.420Z,95725.81
2019-04-29T21:58:38.851Z,95723.22
2019-04-29T22:01:09.282Z,95716.66
2019-04-29T22:03:38.412Z,95719.33
2019-04-29T22:06:07.575Z,95723.60
2019-04-29T22:08:36.722Z,95722.34
2019-04-29T22:11:07.013Z,95720.55
2019-04-29T22:13:39.037Z,95719.64
2019-04-29T22:16:11.363Z,95721.12
2019-04-29T22:18:38.445Z,95718.84
2019-04-29T22:21:10.016Z,95723.75
2019-04-29T22:23:38.442Z,95724.77
2019-04-29T22:26:07.630Z,95720.73
2019-04-29T22:28:36.780Z,95719.93
2019-04-29T22:31:07.769Z,95723.44
2019-04-29T22:33:38.608Z,95724.31
2019-04-29T22:36:10.119Z,95726.48
2019-04-29T22:38:38.868Z,95722.17
2019-04-29T22:41:11.997Z,95723.02
2019-04-29T22:43:52.443Z,95730.76
2019-04-29T22:46:21.579Z,95724.34
2019-04-29T22:48:50.742Z,95713.12
2019-04-29T22:51:19.933Z,95710.08
2019-04-29T22:53:49.164Z,95705.39
2019-04-29T22:56:18.395Z,95704.13
2019-04-29T22:58:47.586Z,95705.77
2019-04-29T23:01:17.833Z,95701.88
2019-04-29T23:03:47.245Z,95697.92
2019-04-29T23:06:16.491Z,95703.14
2019-04-29T23:08:45.607Z,95702.47
2019-04-29T23:11:14.798Z,95702.47
2019-04-29T23:13:45.851Z,95694.28
2019-04-29T23:16:14.832Z,95693.41
2019-04-29T23:18:45.755Z,95692.10
2019-04-29T23:21:43.254Z,95699.84
2019-04-29T23:24:21.127Z,95691.72
2019-04-29T23:26:50.359Z,95687.34
2019-04-29T23:29:19.529Z,95675.36
2019-04-29T23:31:48.679Z,95678.83
2019-04-29T23:34:17.800Z,95678.79
2019-04-29T23:36:48.919Z,95676.78
2019-04-29T23:39:17.763Z,95673.19
2019-04-29T23:41:46.897Z,95682.26
2019-04-29T23:44:16.024Z,95679.66
2019-04-29T23:46:47.504Z,95677.50
2019-04-29T23:49:16.640Z,95674.87
2019-04-29T23:51:46.458Z,95675.19
2019-04-29T23:54:15.787Z,95674.45
2019-04-29T23:57:05.996Z,95668.73
2019-04-29T23:59:36.168Z,95667.87
